sensor_id;sensor_type;location;lat;lon;timestamp;temperature;humidity
30534;DHT22;17318;52.390;9.754;2022-12-29T00:00:11;10.30;99.90
30534;DHT22;17318;52.390;9.754;2022-12-29T00:02:37;10.40;99.90
30534;DHT22;17318;52.390;9.754;2022-12-29T00:05:03;10.50;99.90
30534;DHT22;17318;52.390;9.754;2022-12-29T00:07:28;10.40;99.90
30534;DHT22;17318;52.390;9.754;2022-12-29T00:09:54;10.40;99.90
30534;DHT22;17318;52.390;9.754;2022-12-29T00:12:20;10.70;99.90
30534;DHT22;17318;52.390;9.754;2022-12-29T00:14:46;10.50;99.90
30534;DHT22;17318;52.390;9.754;2022-12-29T00:17:30;10.50;99.90
30534;DHT22;17318;52.390;9.754;2022-12-29T00:19:55;10.50;99.90
30534;DHT22;17318;52.390;9.754;2022-12-29T00:22:40;10.50;99.90
30534;DHT22;17318;52.390;9.754;2022-12-29T00:25:25;10.60;99.90
30534;DHT22;17318;52.390;9.754;2022-12-29T00:28:27;10.60;99.90
30534;DHT22;17318;52.390;9.754;2022-12-29T00:31:12;10.60;99.90
30534;DHT22;17318;52.390;9.754;2022-12-29T00:33:56;10.70;99.90
30534;DHT22;17318;52.390;9.754;2022-12-29T00:36:41;10.70;99.90
30534;DHT22;17318;52.390;9.754;2022-12-29T00:39:12;10.70;99.90
30534;DHT22;17318;52.390;9.754;2022-12-29T00:41:56;10.70;99.90
30534;DHT22;17318;52.390;9.754;2022-12-29T00:44:46;10.70;99.90
30534;DHT22;17318;52.390;9.754;2022-12-29T00:47:11;10.80;99.90
30534;DHT22;17318;52.390;9.754;2022-12-29T00:49:37;10.80;99.90
30534;DHT22;17318;52.390;9.754;2022-12-29T00:52:05;10.80;99.90
30534;DHT22;17318;52.390;9.754;2022-12-29T00:54:34;10.90;99.90
30534;DHT22;17318;52.390;9.754;2022-12-29T00:57:00;10.80;99.90
30534;DHT22;17318;52.390;9.754;2022-12-29T00:59:26;10.80;99.90
30534;DHT22;17318;52.390;9.754;2022-12-29T01:01:53;11.00;99.90
30534;DHT22;17318;52.390;9.754;2022-12-29T01:04:23;11.00;99.90
30534;DHT22;17318;52.390;9.754;2022-12-29T01:06:49;11.00;99.90
30534;DHT22;17318;52.390;9.754;2022-12-29T01:09:16;10.90;99.90
30534;DHT22;17318;52.390;9.754;2022-12-29T01:12:01;10.90;99.90
30534;DHT22;17318;52.390;9.754;2022-12-29T01:14:27;10.90;99.90
30534;DHT22;17318;52.390;9.754;2022-12-29T01:16:53;10.90;99.90
30534;DHT22;17318;52.390;9.754;2022-12-29T01:19:20;10.90;99.90
30534;DHT22;17318;52.390;9.754;2022-12-29T01:21:47;10.90;99.90
30534;DHT22;17318;52.390;9.754;2022-12-29T01:24:13;10.90;99.90
30534;DHT22;17318;52.390;9.754;2022-12-29T01:26:39;10.90;99.90
30534;DHT22;17318;52.390;9.754;2022-12-29T01:29:05;11.00;99.90
30534;DHT22;17318;52.390;9.754;2022-12-29T01:31:31;11.00;99.90
30534;DHT22;17318;52.390;9.754;2022-12-29T01:33:56;11.00;99.90
30534;DHT22;17318;52.390;9.754;2022-12-29T01:36:23;10.90;99.90
30534;DHT22;17318;52.390;9.754;2022-12-29T01:38:49;10.90;99.90
30534;DHT22;17318;52.390;9.754;2022-12-29T01:41:16;10.90;99.90
30534;DHT22;17318;52.390;9.754;2022-12-29T01:43:46;11.00;99.90
30534;DHT22;17318;52.390;9.754;2022-12-29T01:46:40;10.90;99.90
30534;DHT22;17318;52.390;9.754;2022-12-29T01:49:20;10.90;99.90
30534;DHT22;17318;52.390;9.754;2022-12-29T01:52:02;10.90;99.90
30534;DHT22;17318;52.390;9.754;2022-12-29T01:54:40;10.90;99.90
30534;DHT22;17318;52.390;9.754;2022-12-29T01:57:14;10.90;99.90
30534;DHT22;17318;52.390;9.754;2022-12-29T01:59:48;11.00;99.90
30534;DHT22;17318;52.390;9.754;2022-12-29T02:02:16;10.90;99.90
30534;DHT22;17318;52.390;9.754;2022-12-29T02:04:43;11.00;99.90
30534;DHT22;17318;52.390;9.754;2022-12-29T02:07:19;11.00;99.90
30534;DHT22;17318;52.390;9.754;2022-12-29T02:09:49;11.00;99.90
30534;DHT22;17318;52.390;9.754;2022-12-29T02:12:17;11.00;99.90
30534;DHT22;17318;52.390;9.754;2022-12-29T02:14:44;11.00;99.90
30534;DHT22;17318;52.390;9.754;2022-12-29T02:17:16;11.00;99.90
30534;DHT22;17318;52.390;9.754;2022-12-29T02:31:36;10.90;99.90
30534;DHT22;17318;52.390;9.754;2022-12-29T02:36:56;11.00;99.90
30534;DHT22;17318;52.390;9.754;2022-12-29T02:39:43;10.90;99.90
30534;DHT22;17318;52.390;9.754;2022-12-29T02:44:57;11.00;99.90
30534;DHT22;17318;52.390;9.754;2022-12-29T02:52:58;11.10;99.90
30534;DHT22;17318;52.390;9.754;2022-12-29T02:55:24;11.00;99.90
30534;DHT22;17318;52.390;9.754;2022-12-29T02:58:13;11.00;99.90
30534;DHT22;17318;52.390;9.754;2022-12-29T03:11:10;11.20;99.90
30534;DHT22;17318;52.390;9.754;2022-12-29T03:17:28;11.20;99.90
30534;DHT22;17318;52.390;9.754;2022-12-29T03:20:01;11.30;99.90
30534;DHT22;17318;52.390;9.754;2022-12-29T03:22:32;11.30;99.90
30534;DHT22;17318;52.390;9.754;2022-12-29T03:25:03;11.40;99.90
30534;DHT22;17318;52.390;9.754;2022-12-29T03:27:55;11.30;99.90
30534;DHT22;17318;52.390;9.754;2022-12-29T03:30:21;11.40;99.90
30534;DHT22;17318;52.390;9.754;2022-12-29T03:32:49;11.40;99.90
30534;DHT22;17318;52.390;9.754;2022-12-29T03:35:17;11.40;99.90
30534;DHT22;17318;52.390;9.754;2022-12-29T03:37:54;11.40;99.90
30534;DHT22;17318;52.390;9.754;2022-12-29T03:40:23;11.40;99.90
30534;DHT22;17318;52.390;9.754;2022-12-29T03:42:50;11.40;99.90
30534;DHT22;17318;52.390;9.754;2022-12-29T03:45:16;11.40;99.90
30534;DHT22;17318;52.390;9.754;2022-12-29T03:47:42;11.40;99.90
30534;DHT22;17318;52.390;9.754;2022-12-29T03:50:08;11.50;99.90
30534;DHT22;17318;52.390;9.754;2022-12-29T03:52:34;11.50;99.90
30534;DHT22;17318;52.390;9.754;2022-12-29T03:55:00;11.50;99.90
30534;DHT22;17318;52.390;9.754;2022-12-29T03:57:25;11.50;99.90
30534;DHT22;17318;52.390;9.754;2022-12-29T03:59:51;11.50;99.90
30534;DHT22;17318;52.390;9.754;2022-12-29T04:02:16;11.50;99.90
30534;DHT22;17318;52.390;9.754;2022-12-29T04:04:42;11.60;99.90
30534;DHT22;17318;52.390;9.754;2022-12-29T04:07:08;11.60;99.90
30534;DHT22;17318;52.390;9.754;2022-12-29T04:09:33;11.60;99.90
30534;DHT22;17318;52.390;9.754;2022-12-29T04:11:59;11.60;99.90
30534;DHT22;17318;52.390;9.754;2022-12-29T04:14:25;11.70;99.90
30534;DHT22;17318;52.390;9.754;2022-12-29T04:16:51;11.80;99.90
30534;DHT22;17318;52.390;9.754;2022-12-29T04:19:16;11.80;99.90
30534;DHT22;17318;52.390;9.754;2022-12-29T04:21:42;11.80;99.90
30534;DHT22;17318;52.390;9.754;2022-12-29T04:24:08;11.90;99.90
30534;DHT22;17318;52.390;9.754;2022-12-29T04:26:33;11.80;99.90
30534;DHT22;17318;52.390;9.754;2022-12-29T04:28:59;12.00;99.90
30534;DHT22;17318;52.390;9.754;2022-12-29T04:31:25;11.90;99.90
30534;DHT22;17318;52.390;9.754;2022-12-29T04:33:50;11.90;99.90
30534;DHT22;17318;52.390;9.754;2022-12-29T04:36:16;11.90;99.90
30534;DHT22;17318;52.390;9.754;2022-12-29T04:38:42;11.90;99.90
30534;DHT22;17318;52.390;9.754;2022-12-29T04:41:07;11.90;99.90
30534;DHT22;17318;52.390;9.754;2022-12-29T04:43:33;12.00;99.90
30534;DHT22;17318;52.390;9.754;2022-12-29T04:45:59;12.00;99.90
30534;DHT22;17318;52.390;9.754;2022-12-29T04:48:24;12.00;99.90
30534;DHT22;17318;52.390;9.754;2022-12-29T04:50:50;12.00;99.90
30534;DHT22;17318;52.390;9.754;2022-12-29T04:53:17;12.00;99.90
30534;DHT22;17318;52.390;9.754;2022-12-29T04:55:43;12.10;99.90
30534;DHT22;17318;52.390;9.754;2022-12-29T04:58:08;12.10;99.90
30534;DHT22;17318;52.390;9.754;2022-12-29T05:00:34;12.10;99.90
30534;DHT22;17318;52.390;9.754;2022-12-29T05:03:00;12.20;99.90
30534;DHT22;17318;52.390;9.754;2022-12-29T05:05:26;12.10;99.90
30534;DHT22;17318;52.390;9.754;2022-12-29T05:07:51;12.10;99.90
30534;DHT22;17318;52.390;9.754;2022-12-29T05:10:17;12.10;99.90
30534;DHT22;17318;52.390;9.754;2022-12-29T05:12:43;12.20;99.90
30534;DHT22;17318;52.390;9.754;2022-12-29T05:15:10;12.20;99.90
30534;DHT22;17318;52.390;9.754;2022-12-29T05:17:36;12.10;99.90
30534;DHT22;17318;52.390;9.754;2022-12-29T05:20:03;12.20;99.90
30534;DHT22;17318;52.390;9.754;2022-12-29T05:22:29;12.10;99.90
30534;DHT22;17318;52.390;9.754;2022-12-29T05:24:54;12.10;99.90
30534;DHT22;17318;52.390;9.754;2022-12-29T05:27:20;12.20;99.90
30534;DHT22;17318;52.390;9.754;2022-12-29T05:29:46;12.20;99.90
30534;DHT22;17318;52.390;9.754;2022-12-29T05:32:11;12.20;99.90
30534;DHT22;17318;52.390;9.754;2022-12-29T05:34:37;12.20;99.90
30534;DHT22;17318;52.390;9.754;2022-12-29T05:37:03;12.20;99.90
30534;DHT22;17318;52.390;9.754;2022-12-29T05:39:29;12.20;99.90
30534;DHT22;17318;52.390;9.754;2022-12-29T05:41:55;12.20;99.90
30534;DHT22;17318;52.390;9.754;2022-12-29T05:44:21;12.20;99.90
30534;DHT22;17318;52.390;9.754;2022-12-29T05:46:46;12.20;99.90
30534;DHT22;17318;52.390;9.754;2022-12-29T05:49:12;12.20;99.90
30534;DHT22;17318;52.390;9.754;2022-12-29T05:51:38;12.20;99.90
30534;DHT22;17318;52.390;9.754;2022-12-29T05:54:03;12.20;99.90
30534;DHT22;17318;52.390;9.754;2022-12-29T05:56:29;12.20;99.90
30534;DHT22;17318;52.390;9.754;2022-12-29T05:58:55;12.20;99.90
30534;DHT22;17318;52.390;9.754;2022-12-29T06:01:20;12.20;99.90
30534;DHT22;17318;52.390;9.754;2022-12-29T06:03:46;12.10;99.90
30534;DHT22;17318;52.390;9.754;2022-12-29T06:06:12;12.20;99.90
30534;DHT22;17318;52.390;9.754;2022-12-29T06:08:37;12.20;99.90
30534;DHT22;17318;52.390;9.754;2022-12-29T06:11:03;12.10;99.90
30534;DHT22;17318;52.390;9.754;2022-12-29T06:13:29;12.10;99.90
30534;DHT22;17318;52.390;9.754;2022-12-29T06:15:54;12.10;99.90
30534;DHT22;17318;52.390;9.754;2022-12-29T06:18:20;12.00;99.90
30534;DHT22;17318;52.390;9.754;2022-12-29T06:20:46;12.10;99.90
30534;DHT22;17318;52.390;9.754;2022-12-29T06:23:12;12.00;99.90
30534;DHT22;17318;52.390;9.754;2022-12-29T06:25:38;12.00;99.90
30534;DHT22;17318;52.390;9.754;2022-12-29T06:28:04;12.00;99.90
30534;DHT22;17318;52.390;9.754;2022-12-29T06:30:31;11.90;99.90
30534;DHT22;17318;52.390;9.754;2022-12-29T06:32:58;11.90;99.90
30534;DHT22;17318;52.390;9.754;2022-12-29T06:35:24;11.90;99.90
30534;DHT22;17318;52.390;9.754;2022-12-29T06:37:51;11.90;99.90
30534;DHT22;17318;52.390;9.754;2022-12-29T06:40:17;11.90;99.90
30534;DHT22;17318;52.390;9.754;2022-12-29T06:42:43;12.10;99.90
30534;DHT22;17318;52.390;9.754;2022-12-29T06:45:09;11.90;99.90
30534;DHT22;17318;52.390;9.754;2022-12-29T06:47:35;11.90;99.90
30534;DHT22;17318;52.390;9.754;2022-12-29T06:50:02;11.90;99.90
30534;DHT22;17318;52.390;9.754;2022-12-29T06:52:28;11.90;99.90
30534;DHT22;17318;52.390;9.754;2022-12-29T06:54:54;11.80;99.90
30534;DHT22;17318;52.390;9.754;2022-12-29T06:57:22;11.80;99.90
30534;DHT22;17318;52.390;9.754;2022-12-29T06:59:48;11.80;99.90
30534;DHT22;17318;52.390;9.754;2022-12-29T07:02:14;11.80;99.90
30534;DHT22;17318;52.390;9.754;2022-12-29T07:04:41;11.90;99.90
30534;DHT22;17318;52.390;9.754;2022-12-29T07:07:07;11.90;99.90
30534;DHT22;17318;52.390;9.754;2022-12-29T07:09:33;12.00;99.90
30534;DHT22;17318;52.390;9.754;2022-12-29T07:11:59;11.90;99.90
30534;DHT22;17318;52.390;9.754;2022-12-29T07:14:24;12.00;99.90
30534;DHT22;17318;52.390;9.754;2022-12-29T07:16:50;12.00;99.90
30534;DHT22;17318;52.390;9.754;2022-12-29T07:19:16;12.00;99.90
30534;DHT22;17318;52.390;9.754;2022-12-29T07:21:41;12.10;99.90
30534;DHT22;17318;52.390;9.754;2022-12-29T07:24:07;12.00;99.90
30534;DHT22;17318;52.390;9.754;2022-12-29T07:26:34;11.60;99.90
30534;DHT22;17318;52.390;9.754;2022-12-29T07:29:02;11.40;99.90
30534;DHT22;17318;52.390;9.754;2022-12-29T07:31:28;11.30;99.90
30534;DHT22;17318;52.390;9.754;2022-12-29T07:33:54;11.10;99.90
30534;DHT22;17318;52.390;9.754;2022-12-29T07:36:19;11.10;99.90
30534;DHT22;17318;52.390;9.754;2022-12-29T07:38:45;11.00;99.90
30534;DHT22;17318;52.390;9.754;2022-12-29T07:41:11;11.20;99.90
30534;DHT22;17318;52.390;9.754;2022-12-29T07:43:36;11.00;99.90
30534;DHT22;17318;52.390;9.754;2022-12-29T07:46:02;11.00;99.90
30534;DHT22;17318;52.390;9.754;2022-12-29T07:48:28;11.10;99.90
30534;DHT22;17318;52.390;9.754;2022-12-29T07:50:54;11.10;99.90
30534;DHT22;17318;52.390;9.754;2022-12-29T07:53:20;11.10;99.90
30534;DHT22;17318;52.390;9.754;2022-12-29T07:55:45;11.10;99.90
30534;DHT22;17318;52.390;9.754;2022-12-29T07:58:11;11.10;99.90
30534;DHT22;17318;52.390;9.754;2022-12-29T08:00:38;11.20;99.90
30534;DHT22;17318;52.390;9.754;2022-12-29T08:03:07;11.10;99.90
30534;DHT22;17318;52.390;9.754;2022-12-29T08:05:33;11.10;99.90
30534;DHT22;17318;52.390;9.754;2022-12-29T08:07:59;11.10;99.90
30534;DHT22;17318;52.390;9.754;2022-12-29T08:10:25;11.10;99.90
30534;DHT22;17318;52.390;9.754;2022-12-29T08:12:51;11.10;99.90
30534;DHT22;17318;52.390;9.754;2022-12-29T08:15:20;11.10;99.90
30534;DHT22;17318;52.390;9.754;2022-12-29T08:17:45;11.00;99.90
30534;DHT22;17318;52.390;9.754;2022-12-29T08:20:11;11.00;99.90
30534;DHT22;17318;52.390;9.754;2022-12-29T08:22:44;11.10;99.90
30534;DHT22;17318;52.390;9.754;2022-12-29T08:25:10;11.30;99.90
30534;DHT22;17318;52.390;9.754;2022-12-29T08:27:36;11.10;99.90
30534;DHT22;17318;52.390;9.754;2022-12-29T08:30:02;11.10;99.90
30534;DHT22;17318;52.390;9.754;2022-12-29T08:32:28;11.10;99.90
30534;DHT22;17318;52.390;9.754;2022-12-29T08:34:54;11.20;99.90
30534;DHT22;17318;52.390;9.754;2022-12-29T08:37:20;11.10;99.90
30534;DHT22;17318;52.390;9.754;2022-12-29T08:39:47;11.20;99.90
30534;DHT22;17318;52.390;9.754;2022-12-29T08:42:13;11.10;99.90
30534;DHT22;17318;52.390;9.754;2022-12-29T08:44:39;11.10;99.90
30534;DHT22;17318;52.390;9.754;2022-12-29T08:47:04;11.10;99.90
30534;DHT22;17318;52.390;9.754;2022-12-29T08:49:30;11.20;99.90
30534;DHT22;17318;52.390;9.754;2022-12-29T08:51:58;11.20;99.90
30534;DHT22;17318;52.390;9.754;2022-12-29T08:54:27;11.20;99.90
30534;DHT22;17318;52.390;9.754;2022-12-29T08:56:53;11.30;99.90
30534;DHT22;17318;52.390;9.754;2022-12-29T08:59:19;11.30;99.90
30534;DHT22;17318;52.390;9.754;2022-12-29T09:01:44;11.30;99.90
30534;DHT22;17318;52.390;9.754;2022-12-29T09:04:10;11.30;99.90
30534;DHT22;17318;52.390;9.754;2022-12-29T09:06:36;11.30;99.90
30534;DHT22;17318;52.390;9.754;2022-12-29T09:09:02;11.30;99.90
30534;DHT22;17318;52.390;9.754;2022-12-29T09:11:28;11.30;99.90
30534;DHT22;17318;52.390;9.754;2022-12-29T09:13:54;11.30;99.90
30534;DHT22;17318;52.390;9.754;2022-12-29T09:16:21;11.30;99.90
30534;DHT22;17318;52.390;9.754;2022-12-29T09:18:47;11.40;99.90
30534;DHT22;17318;52.390;9.754;2022-12-29T09:21:13;11.40;99.90
30534;DHT22;17318;52.390;9.754;2022-12-29T09:23:39;11.40;99.90
30534;DHT22;17318;52.390;9.754;2022-12-29T09:26:06;11.40;99.90
30534;DHT22;17318;52.390;9.754;2022-12-29T09:28:33;11.50;99.90
30534;DHT22;17318;52.390;9.754;2022-12-29T09:30:58;11.60;99.90
30534;DHT22;17318;52.390;9.754;2022-12-29T09:33:24;11.50;99.90
30534;DHT22;17318;52.390;9.754;2022-12-29T09:35:57;11.50;99.90
30534;DHT22;17318;52.390;9.754;2022-12-29T09:38:24;11.50;99.90
30534;DHT22;17318;52.390;9.754;2022-12-29T09:40:55;11.60;99.90
30534;DHT22;17318;52.390;9.754;2022-12-29T09:46:41;11.70;99.90
30534;DHT22;17318;52.390;9.754;2022-12-29T09:52:11;11.80;99.90
30534;DHT22;17318;52.390;9.754;2022-12-29T09:54:53;11.80;99.90
30534;DHT22;17318;52.390;9.754;2022-12-29T09:57:29;11.70;99.90
30534;DHT22;17318;52.390;9.754;2022-12-29T10:00:01;11.70;99.90
30534;DHT22;17318;52.390;9.754;2022-12-29T10:02:43;11.70;99.90
30534;DHT22;17318;52.390;9.754;2022-12-29T10:05:38;11.70;99.90
30534;DHT22;17318;52.390;9.754;2022-12-29T10:08:13;11.70;99.90
30534;DHT22;17318;52.390;9.754;2022-12-29T10:13:24;11.80;99.90
30534;DHT22;17318;52.390;9.754;2022-12-29T10:21:08;11.80;99.90
30534;DHT22;17318;52.390;9.754;2022-12-29T10:23:45;11.70;99.90
30534;DHT22;17318;52.390;9.754;2022-12-29T10:26:35;11.80;99.90
30534;DHT22;17318;52.390;9.754;2022-12-29T10:29:04;11.70;99.90
30534;DHT22;17318;52.390;9.754;2022-12-29T10:31:35;11.80;99.90
30534;DHT22;17318;52.390;9.754;2022-12-29T10:34:10;11.80;99.90
30534;DHT22;17318;52.390;9.754;2022-12-29T10:36:41;11.80;99.90
30534;DHT22;17318;52.390;9.754;2022-12-29T10:44:36;11.80;99.90
30534;DHT22;17318;52.390;9.754;2022-12-29T10:47:06;11.90;99.90
30534;DHT22;17318;52.390;9.754;2022-12-29T10:49:39;11.90;99.90
30534;DHT22;17318;52.390;9.754;2022-12-29T10:52:06;11.90;99.90
30534;DHT22;17318;52.390;9.754;2022-12-29T10:57:11;12.00;99.90
30534;DHT22;17318;52.390;9.754;2022-12-29T10:59:39;12.00;99.90
30534;DHT22;17318;52.390;9.754;2022-12-29T11:05:03;12.00;99.90
30534;DHT22;17318;52.390;9.754;2022-12-29T11:07:33;12.00;99.90
30534;DHT22;17318;52.390;9.754;2022-12-29T11:13:03;12.00;99.90
30534;DHT22;17318;52.390;9.754;2022-12-29T11:15:45;12.00;99.90
30534;DHT22;17318;52.390;9.754;2022-12-29T11:18:26;12.00;99.90
30534;DHT22;17318;52.390;9.754;2022-12-29T11:21:00;12.00;99.90
30534;DHT22;17318;52.390;9.754;2022-12-29T11:26:14;12.10;99.80
30534;DHT22;17318;52.390;9.754;2022-12-29T11:28:42;12.20;99.90
30534;DHT22;17318;52.390;9.754;2022-12-29T11:31:09;12.20;99.90
30534;DHT22;17318;52.390;9.754;2022-12-29T11:33:37;12.40;99.70
30534;DHT22;17318;52.390;9.754;2022-12-29T11:36:06;12.30;99.80
30534;DHT22;17318;52.390;9.754;2022-12-29T11:38:40;12.50;99.90
30534;DHT22;17318;52.390;9.754;2022-12-29T11:41:12;12.70;99.60
30534;DHT22;17318;52.390;9.754;2022-12-29T11:43:43;12.90;99.50
30534;DHT22;17318;52.390;9.754;2022-12-29T11:46:22;13.20;98.90
30534;DHT22;17318;52.390;9.754;2022-12-29T11:48:49;13.50;98.70
30534;DHT22;17318;52.390;9.754;2022-12-29T11:51:24;13.80;98.30
30534;DHT22;17318;52.390;9.754;2022-12-29T11:53:56;14.00;98.50
30534;DHT22;17318;52.390;9.754;2022-12-29T11:56:38;14.00;97.60
30534;DHT22;17318;52.390;9.754;2022-12-29T11:59:35;14.20;97.50
30534;DHT22;17318;52.390;9.754;2022-12-29T12:05:18;14.10;96.80
30534;DHT22;17318;52.390;9.754;2022-12-29T12:10:53;14.00;96.50
30534;DHT22;17318;52.390;9.754;2022-12-29T12:21:20;13.60;96.20
30534;DHT22;17318;52.390;9.754;2022-12-29T12:26:50;13.40;96.10
30534;DHT22;17318;52.390;9.754;2022-12-29T12:29:58;13.30;96.10
30534;DHT22;17318;52.390;9.754;2022-12-29T12:35:16;13.20;96.50
30534;DHT22;17318;52.390;9.754;2022-12-29T12:37:57;13.10;96.30
30534;DHT22;17318;52.390;9.754;2022-12-29T12:52:22;12.80;96.80
30534;DHT22;17318;52.390;9.754;2022-12-29T12:55:04;12.70;96.80
30534;DHT22;17318;52.390;9.754;2022-12-29T13:00:16;12.70;96.90
30534;DHT22;17318;52.390;9.754;2022-12-29T13:03:32;12.70;97.00
30534;DHT22;17318;52.390;9.754;2022-12-29T13:20:26;12.60;96.70
30534;DHT22;17318;52.390;9.754;2022-12-29T13:31:42;12.60;96.10
30534;DHT22;17318;52.390;9.754;2022-12-29T13:34:29;12.50;96.20
30534;DHT22;17318;52.390;9.754;2022-12-29T13:37:19;12.60;96.40
30534;DHT22;17318;52.390;9.754;2022-12-29T13:39:49;12.50;96.10
30534;DHT22;17318;52.390;9.754;2022-12-29T13:42:18;12.50;96.10
30534;DHT22;17318;52.390;9.754;2022-12-29T13:44:53;12.50;95.90
30534;DHT22;17318;52.390;9.754;2022-12-29T13:47:28;12.50;96.10
30534;DHT22;17318;52.390;9.754;2022-12-29T13:49:57;12.50;95.90
30534;DHT22;17318;52.390;9.754;2022-12-29T13:55:25;12.50;96.10
30534;DHT22;17318;52.390;9.754;2022-12-29T13:58:00;12.50;96.20
30534;DHT22;17318;52.390;9.754;2022-12-29T14:00:29;12.50;96.20
30534;DHT22;17318;52.390;9.754;2022-12-29T14:06:14;12.40;96.10
30534;DHT22;17318;52.390;9.754;2022-12-29T14:08:40;12.40;96.30
30534;DHT22;17318;52.390;9.754;2022-12-29T14:11:11;12.40;96.20
30534;DHT22;17318;52.390;9.754;2022-12-29T14:13:43;12.40;96.30
30534;DHT22;17318;52.390;9.754;2022-12-29T14:16:25;12.40;96.20
30534;DHT22;17318;52.390;9.754;2022-12-29T14:18:51;12.40;96.40
30534;DHT22;17318;52.390;9.754;2022-12-29T14:21:21;12.40;96.50
30534;DHT22;17318;52.390;9.754;2022-12-29T14:23:50;12.30;96.30
30534;DHT22;17318;52.390;9.754;2022-12-29T14:26:17;12.40;96.40
30534;DHT22;17318;52.390;9.754;2022-12-29T14:28:47;12.40;96.50
30534;DHT22;17318;52.390;9.754;2022-12-29T14:39:18;12.30;96.60
30534;DHT22;17318;52.390;9.754;2022-12-29T14:42:00;12.30;96.50
30534;DHT22;17318;52.390;9.754;2022-12-29T14:44:26;12.30;96.60
30534;DHT22;17318;52.390;9.754;2022-12-29T14:46:59;12.30;96.60
30534;DHT22;17318;52.390;9.754;2022-12-29T14:49:31;12.30;96.50
30534;DHT22;17318;52.390;9.754;2022-12-29T14:54:52;12.30;96.50
30534;DHT22;17318;52.390;9.754;2022-12-29T14:57:33;12.30;96.50
30534;DHT22;17318;52.390;9.754;2022-12-29T15:00:14;12.30;96.40
30534;DHT22;17318;52.390;9.754;2022-12-29T15:02:45;12.20;96.40
30534;DHT22;17318;52.390;9.754;2022-12-29T15:05:37;12.20;96.50
30534;DHT22;17318;52.390;9.754;2022-12-29T15:08:07;12.30;96.70
30534;DHT22;17318;52.390;9.754;2022-12-29T15:10:47;12.40;96.50
30534;DHT22;17318;52.390;9.754;2022-12-29T15:13:22;12.20;96.50
30534;DHT22;17318;52.390;9.754;2022-12-29T15:15:47;12.20;96.40
30534;DHT22;17318;52.390;9.754;2022-12-29T15:18:29;12.20;96.40
30534;DHT22;17318;52.390;9.754;2022-12-29T15:21:01;12.10;96.30
30534;DHT22;17318;52.390;9.754;2022-12-29T15:23:29;12.10;96.40
30534;DHT22;17318;52.390;9.754;2022-12-29T15:26:07;12.10;96.50
30534;DHT22;17318;52.390;9.754;2022-12-29T15:28:44;12.10;96.50
30534;DHT22;17318;52.390;9.754;2022-12-29T15:31:24;12.00;96.70
30534;DHT22;17318;52.390;9.754;2022-12-29T15:33:52;12.00;96.80
30534;DHT22;17318;52.390;9.754;2022-12-29T15:36:26;12.00;96.70
30534;DHT22;17318;52.390;9.754;2022-12-29T15:38:53;12.00;96.70
30534;DHT22;17318;52.390;9.754;2022-12-29T15:41:48;12.10;96.70
30534;DHT22;17318;52.390;9.754;2022-12-29T15:44:40;11.90;96.60
30534;DHT22;17318;52.390;9.754;2022-12-29T15:47:17;11.90;96.60
30534;DHT22;17318;52.390;9.754;2022-12-29T15:49:44;11.90;96.60
30534;DHT22;17318;52.390;9.754;2022-12-29T15:52:18;11.90;96.60
30534;DHT22;17318;52.390;9.754;2022-12-29T15:54:44;11.80;96.70
30534;DHT22;17318;52.390;9.754;2022-12-29T15:57:25;11.80;96.80
30534;DHT22;17318;52.390;9.754;2022-12-29T15:59:51;11.80;96.90
30534;DHT22;17318;52.390;9.754;2022-12-29T16:02:20;11.80;97.00
30534;DHT22;17318;52.390;9.754;2022-12-29T16:04:48;11.80;97.10
30534;DHT22;17318;52.390;9.754;2022-12-29T16:07:31;11.80;97.20
30534;DHT22;17318;52.390;9.754;2022-12-29T16:09:59;11.80;97.30
30534;DHT22;17318;52.390;9.754;2022-12-29T16:12:26;11.80;97.40
30534;DHT22;17318;52.390;9.754;2022-12-29T16:14:58;11.80;97.60
30534;DHT22;17318;52.390;9.754;2022-12-29T16:17:30;11.80;97.70
30534;DHT22;17318;52.390;9.754;2022-12-29T16:19:59;11.70;97.80
30534;DHT22;17318;52.390;9.754;2022-12-29T16:22:32;11.70;98.00
30534;DHT22;17318;52.390;9.754;2022-12-29T16:25:06;11.70;98.10
30534;DHT22;17318;52.390;9.754;2022-12-29T16:27:38;11.70;98.20
30534;DHT22;17318;52.390;9.754;2022-12-29T16:32:48;11.60;98.40
30534;DHT22;17318;52.390;9.754;2022-12-29T16:35:19;11.60;98.40
30534;DHT22;17318;52.390;9.754;2022-12-29T16:37:46;11.60;98.40
30534;DHT22;17318;52.390;9.754;2022-12-29T16:47:48;11.70;99.20
30534;DHT22;17318;52.390;9.754;2022-12-29T16:50:21;11.50;99.40
30534;DHT22;17318;52.390;9.754;2022-12-29T16:52:50;11.50;99.60
30534;DHT22;17318;52.390;9.754;2022-12-29T16:55:18;11.50;99.60
30534;DHT22;17318;52.390;9.754;2022-12-29T16:57:46;11.60;99.70
30534;DHT22;17318;52.390;9.754;2022-12-29T17:00:23;11.50;99.70
30534;DHT22;17318;52.390;9.754;2022-12-29T17:02:50;11.50;99.60
30534;DHT22;17318;52.390;9.754;2022-12-29T17:05:18;11.50;99.60
30534;DHT22;17318;52.390;9.754;2022-12-29T17:07:44;11.50;99.30
30534;DHT22;17318;52.390;9.754;2022-12-29T17:10:11;11.50;99.40
30534;DHT22;17318;52.390;9.754;2022-12-29T17:12:37;11.40;99.40
30534;DHT22;17318;52.390;9.754;2022-12-29T17:15:07;11.50;99.40
30534;DHT22;17318;52.390;9.754;2022-12-29T17:17:45;11.40;99.10
30534;DHT22;17318;52.390;9.754;2022-12-29T17:20:16;11.40;99.00
30534;DHT22;17318;52.390;9.754;2022-12-29T17:22:42;11.40;98.90
30534;DHT22;17318;52.390;9.754;2022-12-29T17:25:12;11.40;98.90
30534;DHT22;17318;52.390;9.754;2022-12-29T17:27:43;11.30;98.70
30534;DHT22;17318;52.390;9.754;2022-12-29T17:30:19;11.30;98.70
30534;DHT22;17318;52.390;9.754;2022-12-29T17:33:05;11.30;98.70
30534;DHT22;17318;52.390;9.754;2022-12-29T17:35:33;11.50;98.80
30534;DHT22;17318;52.390;9.754;2022-12-29T17:37:58;11.40;98.70
30534;DHT22;17318;52.390;9.754;2022-12-29T17:40:27;11.40;98.70
30534;DHT22;17318;52.390;9.754;2022-12-29T17:42:56;11.40;98.60
30534;DHT22;17318;52.390;9.754;2022-12-29T17:45:23;11.40;98.50
30534;DHT22;17318;52.390;9.754;2022-12-29T17:47:49;11.40;98.60
30534;DHT22;17318;52.390;9.754;2022-12-29T17:50:18;11.30;98.60
30534;DHT22;17318;52.390;9.754;2022-12-29T17:52:51;11.30;98.60
30534;DHT22;17318;52.390;9.754;2022-12-29T17:55:20;11.30;98.60
30534;DHT22;17318;52.390;9.754;2022-12-29T17:57:46;11.30;98.70
30534;DHT22;17318;52.390;9.754;2022-12-29T18:00:19;11.40;98.80
30534;DHT22;17318;52.390;9.754;2022-12-29T18:02:46;11.30;98.80
30534;DHT22;17318;52.390;9.754;2022-12-29T18:05:23;11.30;98.80
30534;DHT22;17318;52.390;9.754;2022-12-29T18:07:54;11.30;98.80
30534;DHT22;17318;52.390;9.754;2022-12-29T18:10:21;11.30;98.70
30534;DHT22;17318;52.390;9.754;2022-12-29T18:12:48;11.30;98.80
30534;DHT22;17318;52.390;9.754;2022-12-29T18:15:26;11.30;98.80
30534;DHT22;17318;52.390;9.754;2022-12-29T18:18:12;11.30;98.70
30534;DHT22;17318;52.390;9.754;2022-12-29T18:20:41;11.30;98.70